CBX weather

Condobolin Airport
New South Wales, Australia

Public forecast

Using degrees Celsius for public forecast. Weather courtesy of forecast.io.

METAR (pilot weather report)

Closest report is Dubbo City Regional Airport, 85.8 nm (158.9 km) NE. Retrieved 2019/04/24 18:00 UTC (3 minutes ago):

YSDU 241800Z AUTO 09004KT 9999 // SCT125 16/11 Q1021

TAF (pilot weather forecast)

Closest forecast is Dubbo City Regional Airport, 85.8 nm (158.9 km) NE. Retrieved 2019/04/24 18:36 UTC (0 seconds ago):

TAF YSDU 241649Z 2418/2512 10005KT CAVOK FM250300 22008KT CAVOK